createdAt,value
2022-10-23T00:03:40.373Z,100572.81
2022-10-23T00:07:41.996Z,100567.91
2022-10-23T00:11:44.746Z,100569.63
2022-10-23T00:15:46.423Z,100578.13
2022-10-23T00:19:47.948Z,100572.34
2022-10-23T00:23:49.756Z,100576.72
2022-10-23T00:27:51.386Z,100573.97
2022-10-23T00:31:52.912Z,100573.78
2022-10-23T00:35:54.422Z,100569.03
2022-10-23T00:39:56.287Z,100567.75
2022-10-23T00:44:04.053Z,100565.44
2022-10-23T00:48:05.771Z,100562.19
2022-10-23T00:52:09.940Z,100562.53
2022-10-23T00:56:12.800Z,100564.59
2022-10-23T01:00:23.713Z,100564.00
2022-10-23T01:04:29.756Z,100573.00
2022-10-23T01:08:43.512Z,100563.75
2022-10-23T01:13:02.302Z,100564.75
2022-10-23T01:17:12.612Z,100560.38
2022-10-23T01:21:23.825Z,100568.69
2022-10-23T01:25:51.994Z,100569.72
2022-10-23T01:30:07.523Z,100578.81
2022-10-23T01:34:20.278Z,100563.91
2022-10-23T01:38:25.837Z,100563.91
2022-10-23T01:42:35.531Z,100568.41
2022-10-23T01:46:37.545Z,100570.28
2022-10-23T01:50:43.818Z,100569.38
2022-10-23T01:54:47.327Z,100565.91
2022-10-23T01:58:52.553Z,100571.41
2022-10-23T02:02:58.643Z,100576.34
2022-10-23T02:07:06.218Z,100574.81
2022-10-23T02:11:11.219Z,100560.63
2022-10-23T02:15:37.714Z,100557.88
2022-10-23T02:20:05.039Z,100553.59
2022-10-23T02:24:11.582Z,100545.81
2022-10-23T02:28:25.104Z,100553.84
2022-10-23T02:32:31.189Z,100538.00
2022-10-23T02:36:33.008Z,100538.72
2022-10-23T02:40:40.568Z,100543.16
2022-10-23T02:44:57.979Z,100539.56
2022-10-23T02:49:13.545Z,100533.91
2022-10-23T02:53:44.391Z,100542.22
2022-10-23T02:58:10.453Z,100538.59
2022-10-23T03:02:20.996Z,100540.50
2022-10-23T03:06:24.947Z,100546.75
2022-10-23T03:10:26.436Z,100552.56
2022-10-23T03:14:27.880Z,100553.44
2022-10-23T03:18:29.380Z,100535.78
2022-10-23T03:22:34.208Z,100548.53
2022-10-23T03:26:35.823Z,100551.34
2022-10-23T03:30:37.350Z,100554.34
2022-10-23T03:34:39.068Z,100537.66
2022-10-23T03:38:43.686Z,100534.38
2022-10-23T03:42:45.560Z,100541.41
2022-10-23T03:46:51.211Z,100542.34
2022-10-23T03:50:52.893Z,100534.53
2022-10-23T03:54:54.520Z,100539.00
2022-10-23T03:58:56.070Z,100538.16
2022-10-23T04:03:00.396Z,100543.13
2022-10-23T04:07:02.932Z,100550.06
2022-10-23T04:11:04.511Z,100553.97
2022-10-23T04:15:16.849Z,100532.53
2022-10-23T04:19:20.870Z,100535.94
2022-10-23T04:23:22.502Z,100539.50
2022-10-23T04:27:24.297Z,100531.75
2022-10-23T04:31:26.186Z,100528.41
2022-10-23T04:35:27.789Z,100530.03
2022-10-23T04:39:29.756Z,100543.47
2022-10-23T04:43:31.232Z,100546.00
2022-10-23T04:47:32.734Z,100536.25
2022-10-23T04:51:35.062Z,100537.03
2022-10-23T04:55:55.492Z,100536.09
2022-10-23T05:00:01.866Z,100545.16
2022-10-23T05:04:10.370Z,100547.28
2022-10-23T05:08:50.472Z,100542.75
2022-10-23T05:13:19.872Z,100531.38
2022-10-23T05:17:26.984Z,100533.84
2022-10-23T05:21:31.314Z,100540.34
2022-10-23T05:25:35.260Z,100550.81
2022-10-23T05:29:47.581Z,100537.56
2022-10-23T05:33:54.373Z,100542.25
2022-10-23T05:37:58.965Z,100544.53
2022-10-23T05:42:00.884Z,100542.50
2022-10-23T05:46:06.232Z,100532.34
2022-10-23T05:50:08.240Z,100531.41
2022-10-23T05:54:44.928Z,100524.66
2022-10-23T05:58:56.583Z,100516.09
2022-10-23T06:03:16.462Z,100526.19
2022-10-23T06:07:24.445Z,100533.75
2022-10-23T06:11:26.341Z,100523.66
2022-10-23T06:15:34.208Z,100527.94
2022-10-23T06:19:43.779Z,100533.69
2022-10-23T06:23:46.516Z,100535.03
2022-10-23T06:27:53.832Z,100530.66
2022-10-23T06:31:55.580Z,100529.84
2022-10-23T06:35:58.508Z,100532.38
2022-10-23T06:40:00.197Z,100533.94
2022-10-23T06:44:20.750Z,100537.47
2022-10-23T06:48:26.552Z,100543.66
2022-10-23T06:52:46.401Z,100548.28
2022-10-23T06:56:51.382Z,100545.53
2022-10-23T07:01:01.949Z,100542.53
2022-10-23T07:05:04.477Z,100541.66
2022-10-23T07:09:06.144Z,100547.78
2022-10-23T07:13:26.101Z,100533.38
2022-10-23T07:17:34.923Z,100547.28
2022-10-23T07:21:37.808Z,100559.91
2022-10-23T07:26:11.498Z,100548.19
2022-10-23T07:30:14.405Z,100542.63
2022-10-23T07:34:24.887Z,100543.22
2022-10-23T07:38:44.612Z,100550.63
2022-10-23T07:42:46.294Z,100542.50
2022-10-23T07:46:49.802Z,100548.66
2022-10-23T07:50:51.923Z,100540.03
2022-10-23T07:54:53.859Z,100539.81
2022-10-23T07:58:56.349Z,100537.94
2022-10-23T08:02:57.905Z,100532.38
2022-10-23T08:07:01.074Z,100544.75
2022-10-23T08:11:06.344Z,100546.91
2022-10-23T08:15:18.545Z,100552.34
2022-10-23T08:19:27.934Z,100548.25
2022-10-23T08:23:30.985Z,100557.56
2022-10-23T08:27:33.589Z,100550.31
2022-10-23T08:31:35.831Z,100546.59
2022-10-23T08:35:46.286Z,100542.72
2022-10-23T08:39:55.895Z,100540.34
2022-10-23T08:44:28.046Z,100532.59
2022-10-23T08:48:42.639Z,100525.38
2022-10-23T08:53:29.850Z,100524.25
2022-10-23T08:57:43.834Z,100520.22
2022-10-23T09:02:11.715Z,100512.63
2022-10-23T09:06:31.023Z,100527.03
2022-10-23T09:10:52.744Z,100517.88
2022-10-23T09:15:19.656Z,100507.91
2022-10-23T09:19:27.267Z,100518.72
2022-10-23T09:23:29.044Z,100498.63
2022-10-23T09:27:30.832Z,100496.97
2022-10-23T09:31:32.477Z,100493.81
2022-10-23T09:35:33.971Z,100507.38
2022-10-23T09:39:36.868Z,100510.94
2022-10-23T09:43:38.502Z,100502.78
2022-10-23T09:47:42.229Z,100514.97
2022-10-23T09:52:04.130Z,100511.72
2022-10-23T10:00:53.399Z,100517.50
2022-10-23T10:05:43.833Z,100499.28
2022-10-23T10:09:56.528Z,100503.13
2022-10-23T10:14:19.257Z,100507.00
2022-10-23T10:18:26.405Z,100499.88
2022-10-23T10:22:33.877Z,100495.31
2022-10-23T10:26:53.512Z,100487.84
2022-10-23T10:31:10.474Z,100472.50
2022-10-23T10:35:33.908Z,100479.81
2022-10-23T10:39:44.292Z,100492.25
2022-10-23T10:44:17.608Z,100480.50
2022-10-23T10:48:52.857Z,100463.50
2022-10-23T10:53:23.464Z,100456.09
2022-10-23T10:57:39.158Z,100452.91
2022-10-23T11:02:12.672Z,100442.28
2022-10-23T11:06:19.086Z,100427.06
2022-10-23T11:10:47.652Z,100427.97
2022-10-23T11:14:50.313Z,100425.91
2022-10-23T11:19:11.301Z,100427.13
2022-10-23T11:24:12.529Z,100422.66
2022-10-23T11:28:48.328Z,100414.16
2022-10-23T11:33:16.842Z,100406.84
2022-10-23T11:37:20.426Z,100408.72
2022-10-23T11:41:33.717Z,100395.03
2022-10-23T11:45:38.411Z,100381.97
2022-10-23T11:49:40.023Z,100387.22
2022-10-23T11:53:41.606Z,100381.19
2022-10-23T11:57:46.125Z,100368.63
2022-10-23T12:01:50.242Z,100374.06
2022-10-23T12:06:02.893Z,100380.66
2022-10-23T12:10:26.863Z,100368.94
2022-10-23T12:14:39.386Z,100362.72
2022-10-23T12:18:48.112Z,100365.66
2022-10-23T12:23:05.908Z,100355.75
2022-10-23T12:27:07.576Z,100344.47
2022-10-23T12:31:27.652Z,100331.38
2022-10-23T12:35:50.685Z,100320.91
2022-10-23T12:39:56.661Z,100325.22
2022-10-23T12:44:03.987Z,100314.56
2022-10-23T12:48:05.870Z,100295.28
2022-10-23T12:52:17.210Z,100293.09
2022-10-23T12:56:19.091Z,100283.75
2022-10-23T13:00:24.115Z,100282.06
2022-10-23T13:04:29.390Z,100283.03
2022-10-23T13:08:42.983Z,100272.72
2022-10-23T13:13:13.421Z,100276.75
2022-10-23T13:17:14.973Z,100270.91
2022-10-23T13:21:23.041Z,100264.22
2022-10-23T13:25:31.173Z,100263.44
2022-10-23T13:29:34.650Z,100261.09
2022-10-23T13:33:43.561Z,100245.78
2022-10-23T13:41:51.513Z,100253.28
2022-10-23T13:45:53.733Z,100266.81
2022-10-23T13:49:55.428Z,100257.66
2022-10-23T13:53:57.668Z,100247.59
2022-10-23T13:57:59.337Z,100256.38
2022-10-23T14:02:01.001Z,100251.28
2022-10-23T14:06:02.792Z,100248.78
2022-10-23T14:10:05.094Z,100239.44
2022-10-23T14:14:07.131Z,100234.84
2022-10-23T14:18:08.676Z,100228.41
2022-10-23T14:22:10.461Z,100216.75
2022-10-23T14:26:15.252Z,100208.16
2022-10-23T14:30:16.865Z,100209.22
2022-10-23T14:34:18.677Z,100219.63
2022-10-23T14:38:20.303Z,100200.59
2022-10-23T14:42:22.045Z,100198.19
2022-10-23T14:46:25.294Z,100210.31
2022-10-23T14:50:27.628Z,100199.28
2022-10-23T14:54:31.142Z,100204.59
2022-10-23T14:58:32.753Z,100193.22
2022-10-23T15:02:34.412Z,100190.75
2022-10-23T15:06:36.843Z,100192.34
2022-10-23T15:10:39.100Z,100168.03
2022-10-23T15:14:40.718Z,100153.88
2022-10-23T15:18:42.247Z,100170.72
2022-10-23T15:22:44.143Z,100166.63
2022-10-23T15:26:46.488Z,100165.69
2022-10-23T15:30:48.113Z,100167.28
2022-10-23T15:34:50.195Z,100162.88
2022-10-23T15:38:52.010Z,100158.50
2022-10-23T15:42:53.499Z,100153.94
2022-10-23T15:46:56.974Z,100150.06
2022-10-23T15:50:59.131Z,100150.81
2022-10-23T15:55:00.692Z,100161.19
2022-10-23T15:59:02.861Z,100156.41
2022-10-23T16:03:04.440Z,100146.44
2022-10-23T16:07:07.110Z,100140.16
2022-10-23T16:11:20.991Z,100144.22
2022-10-23T16:15:22.643Z,100141.16
2022-10-23T16:19:24.429Z,100131.28
2022-10-23T16:23:28.210Z,100134.13
2022-10-23T16:27:29.746Z,100126.00
2022-10-23T16:31:31.907Z,100134.88
2022-10-23T16:35:33.504Z,100123.44
2022-10-23T16:39:43.862Z,100122.00
2022-10-23T16:44:23.827Z,100119.09
2022-10-23T16:48:38.308Z,100118.16
2022-10-23T16:52:39.910Z,100109.50
2022-10-23T16:56:41.410Z,100111.06
2022-10-23T17:00:43.093Z,100103.31
2022-10-23T17:04:44.656Z,100113.75
2022-10-23T17:08:46.785Z,100106.97
2022-10-23T17:12:49.915Z,100114.53
2022-10-23T17:16:52.232Z,100104.31
2022-10-23T17:20:57.595Z,100093.78
2022-10-23T17:24:59.216Z,100093.06
2022-10-23T17:29:04.248Z,100100.50
2022-10-23T17:33:06.041Z,100074.72
2022-10-23T17:37:07.884Z,100067.91
2022-10-23T17:41:11.157Z,100079.81
2022-10-23T17:45:12.684Z,100073.91
2022-10-23T17:49:14.308Z,100063.09
2022-10-23T17:53:15.853Z,100055.41
2022-10-23T17:57:20.145Z,100041.59
2022-10-23T18:01:25.072Z,100052.53
2022-10-23T18:05:27.092Z,100047.34
2022-10-23T18:09:28.635Z,100047.59
2022-10-23T18:13:32.362Z,100046.97
2022-10-23T18:17:34.973Z,100046.66
2022-10-23T18:21:37.759Z,100042.63
2022-10-23T18:25:42.815Z,100038.75
2022-10-23T18:29:44.692Z,100038.84
2022-10-23T18:33:46.929Z,100024.63
2022-10-23T18:37:48.725Z,100004.59
2022-10-23T18:41:55.002Z,100002.22
2022-10-23T18:45:56.694Z,100012.25
2022-10-23T18:49:58.319Z,99999.16
2022-10-23T18:54:03.159Z,99989.81
2022-10-23T18:58:04.673Z,99979.09
2022-10-23T19:02:06.621Z,99970.34
2022-10-23T19:06:08.504Z,99966.72
2022-10-23T19:10:15.618Z,99976.94
2022-10-23T19:14:17.126Z,99986.19
2022-10-23T19:18:18.942Z,99998.56
2022-10-23T19:22:20.543Z,99999.25
2022-10-23T19:26:22.228Z,99983.25
2022-10-23T19:30:24.975Z,99978.97
2022-10-23T19:34:26.788Z,99965.97
2022-10-23T19:38:28.275Z,99964.78
2022-10-23T19:42:30.000Z,99966.94
2022-10-23T19:46:31.735Z,99953.88
2022-10-23T19:50:33.422Z,99944.00
2022-10-23T19:54:35.106Z,99935.28
2022-10-23T19:58:37.520Z,99922.09
2022-10-23T20:02:39.204Z,99916.22
2022-10-23T20:06:41.245Z,99912.81
2022-10-23T20:10:44.346Z,99911.41
2022-10-23T20:14:46.056Z,99910.94
2022-10-23T20:18:48.544Z,99897.22
2022-10-23T20:22:54.570Z,99896.91
2022-10-23T20:26:57.220Z,99874.09
2022-10-23T20:30:58.734Z,99892.88
2022-10-23T20:35:00.632Z,99885.03
2022-10-23T20:39:06.027Z,99878.88
2022-10-23T20:43:07.697Z,99863.53
2022-10-23T20:47:09.205Z,99874.31
2022-10-23T20:51:17.371Z,99875.69
2022-10-23T20:55:19.596Z,99877.25
2022-10-23T20:59:21.406Z,99895.25
2022-10-23T21:03:26.135Z,99901.34
2022-10-23T21:07:27.720Z,99916.53
2022-10-23T21:11:29.639Z,99906.03
2022-10-23T21:15:31.233Z,99905.75
2022-10-23T21:19:32.909Z,99910.91
2022-10-23T21:23:35.837Z,99918.84
2022-10-23T21:27:37.434Z,99939.91
2022-10-23T21:31:39.255Z,99977.06
2022-10-23T21:35:47.512Z,99988.63
2022-10-23T21:39:59.790Z,100006.69
2022-10-23T21:44:05.471Z,100029.00
2022-10-23T21:48:07.369Z,100051.81
2022-10-23T21:52:08.816Z,100065.84
2022-10-23T21:56:22.756Z,100072.22
2022-10-23T22:00:24.352Z,100049.78
2022-10-23T22:04:25.971Z,100035.66
2022-10-23T22:08:27.647Z,100060.09
2022-10-23T22:12:29.179Z,100072.13
2022-10-23T22:16:31.483Z,100084.38
2022-10-23T22:20:33.055Z,100086.19
2022-10-23T22:24:36.516Z,100089.25
2022-10-23T22:28:37.977Z,100085.38
2022-10-23T22:32:39.732Z,100075.88
2022-10-23T22:36:41.828Z,100050.78
2022-10-23T22:40:46.644Z,100037.44
2022-10-23T22:44:48.465Z,100031.72
2022-10-23T22:48:49.979Z,100035.72
2022-10-23T22:52:52.152Z,100038.66
2022-10-23T22:56:53.629Z,100022.63
2022-10-23T23:01:13.965Z,100031.31
2022-10-23T23:05:15.591Z,100026.25
2022-10-23T23:09:18.643Z,100015.69
2022-10-23T23:13:20.276Z,100025.97
2022-10-23T23:17:22.547Z,100030.47
2022-10-23T23:21:24.250Z,100029.13
2022-10-23T23:25:25.790Z,100019.31
2022-10-23T23:29:29.327Z,100012.63
2022-10-23T23:33:30.939Z,100007.31
2022-10-23T23:37:32.417Z,99997.38
2022-10-23T23:41:33.990Z,100003.94
2022-10-23T23:45:35.493Z,100009.78
2022-10-23T23:49:36.943Z,100004.66
2022-10-23T23:53:38.515Z,100007.09
2022-10-23T23:57:40.023Z,100009.03
